createdAt,value
2023-03-26T00:00:51.616Z,85.81
2023-03-26T00:03:18.180Z,85.98
2023-03-26T00:05:45.899Z,85.91
2023-03-26T00:08:12.287Z,85.70
2023-03-26T00:10:40.532Z,85.70
2023-03-26T00:13:07.833Z,85.54
2023-03-26T00:15:36.009Z,85.27
2023-03-26T00:18:02.871Z,84.91
2023-03-26T00:20:30.698Z,85.42
2023-03-26T00:22:57.222Z,85.30
2023-03-26T00:25:23.491Z,84.48
2023-03-26T00:27:50.628Z,83.75
2023-03-26T00:30:17.007Z,83.92
2023-03-26T00:32:43.845Z,84.78
2023-03-26T00:35:20.137Z,83.57
2023-03-26T00:37:46.478Z,83.58
2023-03-26T00:40:13.007Z,83.58
2023-03-26T00:42:39.559Z,84.10
2023-03-26T00:45:07.100Z,83.84
2023-03-26T00:47:34.588Z,83.23
2023-03-26T00:50:00.935Z,83.65
2023-03-26T00:52:27.257Z,82.92
2023-03-26T00:54:53.939Z,82.93
2023-03-26T00:57:32.962Z,82.70
2023-03-26T01:00:01.970Z,82.56
2023-03-26T01:02:28.304Z,82.71
2023-03-26T01:04:58.639Z,82.33
2023-03-26T01:07:26.314Z,82.30
2023-03-26T01:09:52.632Z,81.83
2023-03-26T01:12:22.587Z,81.79
2023-03-26T01:14:54.777Z,81.38
2023-03-26T01:17:22.596Z,81.78
2023-03-26T01:19:58.712Z,81.36
2023-03-26T01:22:26.892Z,81.45
2023-03-26T01:24:54.163Z,81.43
2023-03-26T01:27:29.970Z,81.59
2023-03-26T01:30:21.307Z,82.07
2023-03-26T01:33:14.827Z,80.99
2023-03-26T01:35:56.041Z,81.55
2023-03-26T01:39:06.758Z,81.67
2023-03-26T01:41:46.640Z,83.31
2023-03-26T01:44:40.634Z,83.83
2023-03-26T01:47:08.452Z,83.23
2023-03-26T01:49:34.752Z,83.25
2023-03-26T01:52:01.080Z,83.71
2023-03-26T01:54:31.206Z,83.42
2023-03-26T01:57:20.228Z,83.66
2023-03-26T02:00:12.705Z,82.98
2023-03-26T02:02:57.861Z,82.66
2023-03-26T02:05:28.030Z,83.28
2023-03-26T02:08:02.401Z,83.00
2023-03-26T02:10:31.653Z,82.53
2023-03-26T02:12:59.442Z,82.63
2023-03-26T02:15:25.812Z,82.91
2023-03-26T02:17:52.323Z,82.69
2023-03-26T02:20:19.938Z,81.98
2023-03-26T02:22:47.573Z,82.48
2023-03-26T02:25:19.332Z,82.55
2023-03-26T02:27:51.888Z,82.83
2023-03-26T02:30:24.674Z,83.30
2023-03-26T02:32:52.231Z,83.89
2023-03-26T02:35:18.663Z,83.59
2023-03-26T02:37:45.093Z,84.05
2023-03-26T02:40:11.402Z,84.45
2023-03-26T02:42:38.589Z,84.21
2023-03-26T02:45:05.657Z,84.63
2023-03-26T02:47:32.041Z,84.52
2023-03-26T02:49:58.350Z,84.74
2023-03-26T02:52:24.750Z,85.17
2023-03-26T02:54:51.028Z,84.36
2023-03-26T02:57:17.330Z,84.41
2023-03-26T02:59:43.626Z,84.74
2023-03-26T03:02:09.970Z,84.68
2023-03-26T03:04:36.308Z,85.15
2023-03-26T03:07:02.605Z,84.54
2023-03-26T03:09:28.929Z,84.65
2023-03-26T03:11:55.204Z,84.79
2023-03-26T03:14:21.528Z,84.55
2023-03-26T03:16:47.838Z,83.85
2023-03-26T03:19:14.459Z,84.23
2023-03-26T03:21:41.646Z,84.31
2023-03-26T03:24:08.547Z,84.39
2023-03-26T03:26:34.864Z,84.26
2023-03-26T03:29:01.158Z,84.55
2023-03-26T03:31:27.540Z,83.87
2023-03-26T03:33:54.001Z,84.89
2023-03-26T03:36:22.116Z,83.92
2023-03-26T03:38:49.232Z,83.81
2023-03-26T03:41:15.790Z,84.42
2023-03-26T03:43:42.112Z,83.77
2023-03-26T03:46:08.581Z,83.71
2023-03-26T03:48:34.945Z,83.93
2023-03-26T03:51:01.245Z,83.75
2023-03-26T03:53:27.534Z,83.36
2023-03-26T03:55:55.478Z,82.65
2023-03-26T03:58:24.302Z,82.32
2023-03-26T04:00:52.092Z,83.04
2023-03-26T04:03:19.967Z,83.02
2023-03-26T04:06:00.179Z,82.79
2023-03-26T04:08:26.470Z,83.32
2023-03-26T04:10:52.808Z,83.25
2023-03-26T04:13:19.103Z,83.85
2023-03-26T04:15:45.436Z,83.59
2023-03-26T04:18:11.765Z,82.57
2023-03-26T04:20:39.700Z,83.54
2023-03-26T04:23:06.152Z,83.62
2023-03-26T04:25:32.463Z,83.50
2023-03-26T04:28:02.746Z,83.64
2023-03-26T04:30:29.085Z,84.34
2023-03-26T04:32:55.559Z,84.20
2023-03-26T04:35:21.964Z,84.18
2023-03-26T04:37:48.492Z,84.59
2023-03-26T04:40:20.332Z,84.10
2023-03-26T04:42:46.668Z,83.97
2023-03-26T04:45:18.416Z,84.67
2023-03-26T04:47:44.777Z,83.53
2023-03-26T04:50:11.722Z,83.53
2023-03-26T04:52:38.507Z,83.80
2023-03-26T04:55:12.750Z,84.06
2023-03-26T04:57:44.165Z,84.29
2023-03-26T05:00:14.944Z,83.79
2023-03-26T05:02:42.258Z,84.21
2023-03-26T05:05:09.312Z,84.06
2023-03-26T05:07:35.930Z,84.33
2023-03-26T05:10:02.810Z,84.14
2023-03-26T05:12:29.868Z,83.96
2023-03-26T05:14:56.279Z,84.23
2023-03-26T05:17:24.461Z,83.55
2023-03-26T05:19:51.193Z,84.09
2023-03-26T05:22:18.594Z,83.81
2023-03-26T05:24:44.892Z,82.79
2023-03-26T05:27:17.280Z,83.47
2023-03-26T05:29:51.964Z,82.69
2023-03-26T05:32:20.398Z,83.23
2023-03-26T05:34:46.687Z,83.34
2023-03-26T05:37:12.968Z,83.21
2023-03-26T05:39:42.109Z,83.10
2023-03-26T05:42:08.404Z,83.65
2023-03-26T05:44:37.511Z,83.00
2023-03-26T05:47:03.851Z,83.45
2023-03-26T05:49:30.140Z,83.89
2023-03-26T05:51:56.451Z,83.34
2023-03-26T05:54:22.750Z,83.88
2023-03-26T05:56:49.056Z,83.80
2023-03-26T05:59:15.563Z,83.86
2023-03-26T06:01:41.881Z,83.93
2023-03-26T06:04:08.543Z,83.52
2023-03-26T06:06:34.942Z,83.74
2023-03-26T06:09:02.835Z,83.59
2023-03-26T06:11:30.371Z,83.29
2023-03-26T06:13:56.688Z,82.71
2023-03-26T06:16:27.181Z,82.69
2023-03-26T06:18:56.428Z,82.17
2023-03-26T06:21:27.265Z,83.32
2023-03-26T06:23:54.236Z,84.40
2023-03-26T06:26:20.594Z,79.39
2023-03-26T06:28:47.175Z,84.07
2023-03-26T06:31:13.927Z,85.90
2023-03-26T06:33:40.326Z,86.10
2023-03-26T06:36:07.121Z,86.13
2023-03-26T06:38:33.629Z,85.93
2023-03-26T06:41:06.993Z,85.99
2023-03-26T06:43:33.174Z,86.37
2023-03-26T06:46:02.992Z,85.60
2023-03-26T06:48:29.442Z,86.15
2023-03-26T06:50:55.974Z,86.81
2023-03-26T06:53:22.531Z,87.17
2023-03-26T06:55:48.895Z,87.41
2023-03-26T06:58:15.224Z,87.13
2023-03-26T07:00:41.539Z,87.05
2023-03-26T07:03:07.965Z,84.83
2023-03-26T07:05:34.242Z,83.61
2023-03-26T07:08:00.624Z,85.70
2023-03-26T07:10:26.939Z,84.23
2023-03-26T07:12:53.517Z,83.95
2023-03-26T07:15:19.829Z,83.20
2023-03-26T07:17:46.170Z,83.43
2023-03-26T07:20:12.842Z,84.75
2023-03-26T07:22:39.571Z,84.58
2023-03-26T07:25:06.783Z,84.30
2023-03-26T07:27:54.301Z,83.43
2023-03-26T07:30:46.390Z,81.75
2023-03-26T07:33:28.359Z,80.02
2023-03-26T07:36:16.566Z,79.65
2023-03-26T07:38:56.971Z,81.26
2023-03-26T07:41:48.075Z,79.74
2023-03-26T07:44:33.636Z,80.01
2023-03-26T07:47:02.724Z,79.00
2023-03-26T07:49:29.275Z,80.37
2023-03-26T07:51:55.801Z,75.94
2023-03-26T07:54:22.371Z,75.68
2023-03-26T07:57:20.121Z,76.34
2023-03-26T07:59:55.960Z,77.86
2023-03-26T08:02:39.069Z,77.81
2023-03-26T08:05:27.430Z,78.35
2023-03-26T08:08:12.020Z,78.32
2023-03-26T08:10:38.285Z,76.19
2023-03-26T08:13:33.400Z,77.87
2023-03-26T08:16:08.548Z,77.52
2023-03-26T08:18:47.710Z,77.01
2023-03-26T08:21:14.004Z,78.61
2023-03-26T08:24:04.334Z,76.21
2023-03-26T08:26:42.551Z,77.04
2023-03-26T08:29:14.000Z,76.58
2023-03-26T08:31:42.395Z,76.77
2023-03-26T08:34:12.694Z,77.53
2023-03-26T08:36:39.508Z,77.06
2023-03-26T08:39:06.598Z,77.19
2023-03-26T08:41:38.614Z,76.75
2023-03-26T08:44:23.691Z,77.63
2023-03-26T08:47:08.989Z,77.52
2023-03-26T08:49:46.283Z,76.75
2023-03-26T08:52:40.404Z,75.46
2023-03-26T08:55:29.538Z,76.12
2023-03-26T08:58:11.051Z,75.95
2023-03-26T09:00:49.514Z,75.30
2023-03-26T09:03:37.785Z,75.28
2023-03-26T09:06:24.822Z,73.73
2023-03-26T09:09:19.271Z,74.81
2023-03-26T09:12:07.432Z,75.00
2023-03-26T09:14:55.591Z,76.08
2023-03-26T09:17:56.655Z,76.80
2023-03-26T09:20:53.502Z,77.57
2023-03-26T09:23:38.193Z,77.18
2023-03-26T09:26:21.086Z,78.21
2023-03-26T09:29:10.557Z,79.03
2023-03-26T09:32:02.002Z,78.54
2023-03-26T09:34:29.695Z,78.30
2023-03-26T09:37:56.844Z,77.07
2023-03-26T09:40:43.281Z,78.70
2023-03-26T09:43:15.331Z,76.32
2023-03-26T09:46:25.076Z,77.79
2023-03-26T09:49:09.737Z,78.23
2023-03-26T09:52:02.601Z,80.60
2023-03-26T09:54:57.015Z,81.02
2023-03-26T09:57:40.701Z,81.96
2023-03-26T10:00:33.390Z,83.30
2023-03-26T10:03:33.698Z,83.57
2023-03-26T10:06:38.228Z,82.90
2023-03-26T10:09:18.279Z,84.83
2023-03-26T10:12:24.273Z,84.83
2023-03-26T10:15:10.941Z,83.99
2023-03-26T10:17:57.280Z,85.32
2023-03-26T10:20:49.032Z,85.39
2023-03-26T10:23:34.246Z,86.12
2023-03-26T10:26:26.642Z,86.46
2023-03-26T10:29:20.741Z,85.37
2023-03-26T10:32:08.901Z,85.03
2023-03-26T10:34:53.514Z,84.48
2023-03-26T10:37:34.865Z,84.58
2023-03-26T10:40:07.005Z,83.88
2023-03-26T10:43:12.599Z,85.23
2023-03-26T10:46:16.888Z,83.57
2023-03-26T10:49:01.261Z,82.76
2023-03-26T10:51:55.011Z,81.62
2023-03-26T10:55:02.012Z,82.27
2023-03-26T10:57:37.238Z,82.57
2023-03-26T11:00:16.533Z,82.58
2023-03-26T11:03:05.902Z,82.38
2023-03-26T11:06:20.203Z,82.20
2023-03-26T11:09:06.529Z,82.05
2023-03-26T11:11:42.496Z,82.40
2023-03-26T11:14:34.393Z,82.95
2023-03-26T11:17:39.143Z,80.87
2023-03-26T11:20:29.611Z,81.70
2023-03-26T11:23:16.945Z,80.90
2023-03-26T11:26:13.971Z,80.21
2023-03-26T11:29:03.818Z,79.57
2023-03-26T11:31:57.037Z,79.04
2023-03-26T11:34:32.739Z,79.44
2023-03-26T11:37:04.162Z,80.93
2023-03-26T11:39:42.882Z,79.28
2023-03-26T11:42:13.962Z,79.15
2023-03-26T11:44:53.120Z,79.24
2023-03-26T11:47:24.711Z,79.19
2023-03-26T11:49:54.928Z,75.39
2023-03-26T11:52:21.232Z,73.78
2023-03-26T11:54:47.523Z,72.19
2023-03-26T11:57:21.596Z,74.93
2023-03-26T11:59:56.511Z,72.76
2023-03-26T12:02:28.540Z,70.41
2023-03-26T12:05:12.284Z,73.65
2023-03-26T12:07:46.112Z,73.24
2023-03-26T12:10:40.897Z,71.21
2023-03-26T12:13:29.124Z,73.16
2023-03-26T12:16:05.617Z,71.88
2023-03-26T12:18:32.128Z,73.19
2023-03-26T12:21:11.490Z,70.15
2023-03-26T12:23:43.814Z,69.58
2023-03-26T12:26:19.531Z,68.43
2023-03-26T12:28:48.590Z,68.38
2023-03-26T12:31:15.622Z,67.82
2023-03-26T12:33:41.846Z,68.91
2023-03-26T12:36:17.245Z,65.78
2023-03-26T12:38:43.652Z,66.14
2023-03-26T12:43:51.321Z,65.47
2023-03-26T12:44:55.724Z,66.33
2023-03-26T12:48:01.203Z,65.30
2023-03-26T12:50:14.045Z,64.74
2023-03-26T12:53:02.770Z,64.09
2023-03-26T12:55:35.280Z,65.23
2023-03-26T12:58:22.925Z,65.21
2023-03-26T13:01:11.006Z,64.61
2023-03-26T13:03:44.705Z,64.48
2023-03-26T13:06:20.043Z,63.35
2023-03-26T13:08:49.346Z,62.49
2023-03-26T13:11:29.795Z,59.59
2023-03-26T13:14:11.358Z,61.76
2023-03-26T13:16:49.977Z,60.75
2023-03-26T13:19:41.257Z,62.58
2023-03-26T13:22:29.390Z,61.16
2023-03-26T13:25:16.150Z,60.89
2023-03-26T13:27:59.705Z,60.24
2023-03-26T13:30:41.274Z,61.75
2023-03-26T13:33:22.151Z,60.95
2023-03-26T13:36:10.260Z,61.62
2023-03-26T13:39:01.952Z,64.39
2023-03-26T13:42:05.469Z,62.33
2023-03-26T13:44:43.093Z,61.04
2023-03-26T13:47:27.364Z,62.26
2023-03-26T13:50:24.780Z,61.56
2023-03-26T13:53:02.943Z,61.64
2023-03-26T13:55:34.846Z,60.01
2023-03-26T13:58:11.577Z,61.32
2023-03-26T14:00:56.980Z,60.74
2023-03-26T14:03:45.396Z,61.48
2023-03-26T14:06:35.048Z,61.54
2023-03-26T14:09:30.370Z,60.98
2023-03-26T14:11:56.631Z,63.01
2023-03-26T14:14:38.871Z,61.72
2023-03-26T14:17:18.295Z,60.34
2023-03-26T14:19:49.557Z,59.25
2023-03-26T14:22:33.977Z,60.55
2023-03-26T14:25:25.007Z,60.19
2023-03-26T14:28:06.416Z,59.19
2023-03-26T14:30:59.591Z,60.48
2023-03-26T14:33:53.604Z,58.30
2023-03-26T14:36:40.364Z,58.47
2023-03-26T14:39:27.639Z,58.85
2023-03-26T14:42:02.900Z,57.31
2023-03-26T14:44:48.373Z,57.54
2023-03-26T14:47:24.219Z,58.12
2023-03-26T14:50:02.789Z,56.91
2023-03-26T14:52:45.950Z,58.01
2023-03-26T14:55:27.186Z,58.89
2023-03-26T14:57:56.478Z,58.78
2023-03-26T15:00:47.742Z,59.34
2023-03-26T15:03:32.464Z,59.12
2023-03-26T15:06:40.693Z,57.52
2023-03-26T15:09:25.675Z,57.29
2023-03-26T15:12:12.606Z,58.17
2023-03-26T15:14:56.316Z,57.60
2023-03-26T15:17:56.736Z,59.51
2023-03-26T15:20:41.630Z,60.04
2023-03-26T15:23:26.860Z,59.46
2023-03-26T15:25:55.838Z,58.04
2023-03-26T15:28:50.382Z,59.16
2023-03-26T15:31:31.893Z,59.08
2023-03-26T15:34:04.089Z,59.16
2023-03-26T15:36:48.219Z,58.74
2023-03-26T15:39:59.366Z,60.11
2023-03-26T15:42:51.374Z,58.75
2023-03-26T15:45:38.099Z,60.25
2023-03-26T15:48:11.378Z,58.92
2023-03-26T15:51:15.810Z,59.64
2023-03-26T15:54:14.439Z,59.98
2023-03-26T15:57:02.608Z,60.32
2023-03-26T15:59:47.226Z,60.59
2023-03-26T16:02:50.871Z,60.28
2023-03-26T16:05:20.334Z,60.78
2023-03-26T16:07:58.726Z,61.01
2023-03-26T16:10:54.589Z,61.17
2023-03-26T16:13:21.028Z,61.21
2023-03-26T16:16:19.607Z,60.68
2023-03-26T16:19:20.518Z,60.59
2023-03-26T16:22:00.040Z,60.74
2023-03-26T16:24:29.184Z,60.46
2023-03-26T16:27:03.695Z,61.02
2023-03-26T16:29:30.230Z,60.06
2023-03-26T16:32:15.344Z,62.10
2023-03-26T16:34:52.079Z,62.39
2023-03-26T16:37:37.736Z,61.23
2023-03-26T16:40:15.974Z,62.85
2023-03-26T16:43:10.398Z,61.70
2023-03-26T16:46:06.815Z,61.31
2023-03-26T16:49:03.412Z,62.48
2023-03-26T16:51:38.747Z,63.72
2023-03-26T16:54:32.525Z,63.20
2023-03-26T16:57:35.456Z,63.55
2023-03-26T17:00:30.018Z,63.37
2023-03-26T17:03:15.413Z,63.61
2023-03-26T17:05:53.713Z,63.63
2023-03-26T17:08:37.097Z,62.67
2023-03-26T17:11:19.485Z,62.48
2023-03-26T17:13:59.505Z,63.95
2023-03-26T17:16:34.130Z,63.46
2023-03-26T17:19:25.306Z,63.64
2023-03-26T17:22:05.830Z,63.75
2023-03-26T17:24:59.424Z,63.96
2023-03-26T17:27:31.426Z,63.83
2023-03-26T17:30:33.136Z,64.13
2023-03-26T17:33:25.539Z,64.68
2023-03-26T17:36:11.790Z,64.89
2023-03-26T17:38:38.057Z,65.59
2023-03-26T17:41:05.833Z,64.71
2023-03-26T17:43:39.627Z,65.86
2023-03-26T17:46:24.876Z,66.73
2023-03-26T17:49:13.243Z,65.01
2023-03-26T17:51:55.229Z,65.70
2023-03-26T17:54:30.661Z,66.84
2023-03-26T17:57:02.660Z,65.43
2023-03-26T17:59:29.157Z,67.29
2023-03-26T18:01:59.065Z,66.16
2023-03-26T18:04:32.183Z,66.75
2023-03-26T18:07:17.232Z,65.75
2023-03-26T18:10:14.412Z,66.54
2023-03-26T18:13:02.753Z,65.74
2023-03-26T18:15:28.982Z,65.47
2023-03-26T18:18:07.332Z,65.10
2023-03-26T18:20:36.593Z,65.19
2023-03-26T18:23:10.039Z,65.12
2023-03-26T18:25:36.718Z,65.27
2023-03-26T18:28:04.353Z,65.43
2023-03-26T18:30:30.647Z,64.51
2023-03-26T18:33:02.441Z,64.04
2023-03-26T18:35:44.982Z,64.80
2023-03-26T18:38:16.177Z,63.94
2023-03-26T18:40:44.959Z,64.20
2023-03-26T18:43:28.663Z,63.47
2023-03-26T18:46:00.805Z,65.54
2023-03-26T18:48:28.611Z,65.39
2023-03-26T18:51:05.104Z,64.05
2023-03-26T18:53:39.043Z,64.49
2023-03-26T18:56:18.560Z,64.20
2023-03-26T18:58:51.424Z,63.90
2023-03-26T19:01:25.453Z,64.14
2023-03-26T19:03:54.069Z,65.28
2023-03-26T19:06:21.081Z,64.56
2023-03-26T19:08:50.586Z,64.99
2023-03-26T19:11:17.760Z,64.60
2023-03-26T19:13:49.543Z,65.53
2023-03-26T19:16:25.658Z,66.21
2023-03-26T19:18:52.384Z,65.93
2023-03-26T19:21:20.652Z,66.46
2023-03-26T19:23:47.587Z,66.81
2023-03-26T19:26:15.015Z,65.93
2023-03-26T19:28:56.029Z,66.15
2023-03-26T19:31:31.990Z,66.09
2023-03-26T19:34:13.669Z,66.09
2023-03-26T19:37:00.307Z,66.13
2023-03-26T19:39:44.695Z,66.14
2023-03-26T19:42:17.697Z,66.54
2023-03-26T19:44:44.539Z,67.16
2023-03-26T19:47:31.906Z,67.11
2023-03-26T19:50:24.942Z,66.96
2023-03-26T19:53:15.310Z,67.62
2023-03-26T19:55:53.784Z,66.62
2023-03-26T19:58:20.180Z,67.22
2023-03-26T20:00:46.532Z,67.30
2023-03-26T20:03:13.602Z,67.38
2023-03-26T20:05:40.066Z,67.01
2023-03-26T20:08:15.301Z,67.36
2023-03-26T20:10:43.012Z,66.91
2023-03-26T20:13:17.263Z,67.17
2023-03-26T20:16:05.134Z,66.76
2023-03-26T20:18:32.581Z,67.39
2023-03-26T20:20:59.019Z,67.12
2023-03-26T20:23:25.466Z,67.66
2023-03-26T20:25:52.202Z,67.87
2023-03-26T20:28:18.977Z,67.76
2023-03-26T20:30:49.684Z,68.49
2023-03-26T20:33:22.012Z,67.72
2023-03-26T20:35:48.359Z,68.73
2023-03-26T20:38:14.695Z,68.15
2023-03-26T20:40:41.096Z,67.90
2023-03-26T20:43:12.657Z,67.81
2023-03-26T20:45:39.443Z,68.21
2023-03-26T20:48:05.854Z,67.98
2023-03-26T20:50:35.719Z,68.22
2023-03-26T20:53:02.207Z,67.60
2023-03-26T20:55:28.609Z,67.55
2023-03-26T20:57:54.904Z,67.65
2023-03-26T21:00:21.307Z,67.90
2023-03-26T21:02:51.841Z,66.70
2023-03-26T21:05:18.689Z,67.09
2023-03-26T21:07:45.463Z,67.31
2023-03-26T21:10:13.536Z,67.92
2023-03-26T21:13:05.481Z,67.24
2023-03-26T21:15:32.422Z,67.08
2023-03-26T21:17:59.130Z,66.41
2023-03-26T21:20:26.569Z,66.42
2023-03-26T21:22:55.779Z,66.18
2023-03-26T21:25:31.786Z,65.79
2023-03-26T21:28:29.062Z,67.15
2023-03-26T21:31:02.282Z,66.41
2023-03-26T21:33:28.597Z,67.55
2023-03-26T21:35:55.039Z,66.57
2023-03-26T21:38:22.636Z,66.49
2023-03-26T21:43:20.878Z,67.21
2023-03-26T21:45:48.442Z,67.17
2023-03-26T21:48:18.147Z,66.63
2023-03-26T21:50:44.719Z,66.66
2023-03-26T21:53:12.827Z,67.49
2023-03-26T21:55:47.971Z,67.43
2023-03-26T21:58:43.309Z,66.03
2023-03-26T22:01:41.910Z,67.03
2023-03-26T22:04:38.985Z,66.63
2023-03-26T22:07:20.395Z,66.87
2023-03-26T22:09:47.126Z,66.14
2023-03-26T22:12:13.451Z,66.35
2023-03-26T22:14:39.724Z,66.75
2023-03-26T22:17:06.623Z,67.31
2023-03-26T22:19:33.038Z,67.44
2023-03-26T22:21:59.351Z,67.37
2023-03-26T22:24:25.750Z,67.37
2023-03-26T22:26:52.031Z,66.85
2023-03-26T22:29:18.366Z,67.59
2023-03-26T22:31:44.708Z,68.12
2023-03-26T22:34:11.040Z,68.07
2023-03-26T22:36:39.027Z,68.79
2023-03-26T22:39:06.682Z,69.29
2023-03-26T22:41:32.944Z,69.74
2023-03-26T22:44:01.465Z,70.09
2023-03-26T22:46:30.024Z,70.31
2023-03-26T22:48:56.717Z,70.13
2023-03-26T22:51:23.231Z,69.75
2023-03-26T22:53:49.542Z,70.82
2023-03-26T22:56:16.228Z,70.58
2023-03-26T22:58:42.587Z,70.55
2023-03-26T23:01:13.018Z,71.62
2023-03-26T23:03:39.388Z,70.68
2023-03-26T23:06:08.347Z,71.47
2023-03-26T23:08:35.598Z,71.84
2023-03-26T23:11:01.801Z,71.42
2023-03-26T23:13:28.129Z,72.15
2023-03-26T23:15:55.565Z,72.27
2023-03-26T23:18:22.666Z,72.04
2023-03-26T23:20:50.917Z,72.38
2023-03-26T23:23:17.214Z,72.99
2023-03-26T23:25:44.738Z,72.30
2023-03-26T23:28:11.036Z,72.62
2023-03-26T23:30:37.355Z,72.44
2023-03-26T23:33:03.790Z,73.18
2023-03-26T23:35:30.185Z,73.02
2023-03-26T23:37:56.481Z,73.79
2023-03-26T23:40:22.783Z,73.55
2023-03-26T23:42:49.110Z,73.80
2023-03-26T23:45:15.456Z,74.02
2023-03-26T23:47:41.738Z,74.52
2023-03-26T23:50:08.502Z,74.08
2023-03-26T23:52:35.051Z,74.10
2023-03-26T23:55:01.392Z,73.99
2023-03-26T23:57:28.071Z,74.29
2023-03-26T23:59:54.600Z,74.70
